sensor_id;sensor_type;location;lat;lon;timestamp;P1;durP1;ratioP1;P2;durP2;ratioP2
14030;SDS011;7090;49.436;8.490;2023-03-13T00:01:15;6.57;;;6.17;;
14030;SDS011;7090;49.436;8.490;2023-03-13T00:03:41;14.03;;;6.50;;
14030;SDS011;7090;49.436;8.490;2023-03-13T00:06:07;15.00;;;7.00;;
14030;SDS011;7090;49.436;8.490;2023-03-13T00:08:33;7.40;;;6.60;;
14030;SDS011;7090;49.436;8.490;2023-03-13T00:11:01;13.30;;;6.67;;
14030;SDS011;7090;49.436;8.490;2023-03-13T00:13:28;7.30;;;6.70;;
14030;SDS011;7090;49.436;8.490;2023-03-13T00:16:12;8.63;;;6.50;;
14030;SDS011;7090;49.436;8.490;2023-03-13T00:18:49;9.93;;;7.03;;
14030;SDS011;7090;49.436;8.490;2023-03-13T00:21:17;7.03;;;6.33;;
14030;SDS011;7090;49.436;8.490;2023-03-13T00:23:45;6.70;;;6.23;;
14030;SDS011;7090;49.436;8.490;2023-03-13T00:26:12;6.80;;;6.43;;
14030;SDS011;7090;49.436;8.490;2023-03-13T00:28:40;7.07;;;6.47;;
14030;SDS011;7090;49.436;8.490;2023-03-13T00:31:07;7.40;;;6.57;;
14030;SDS011;7090;49.436;8.490;2023-03-13T00:33:34;14.93;;;6.73;;
14030;SDS011;7090;49.436;8.490;2023-03-13T00:36:01;6.27;;;5.97;;
14030;SDS011;7090;49.436;8.490;2023-03-13T00:38:32;6.93;;;6.03;;
14030;SDS011;7090;49.436;8.490;2023-03-13T00:40:59;6.27;;;5.67;;
14030;SDS011;7090;49.436;8.490;2023-03-13T00:43:26;14.67;;;6.30;;
14030;SDS011;7090;49.436;8.490;2023-03-13T00:45:52;6.17;;;5.63;;
14030;SDS011;7090;49.436;8.490;2023-03-13T00:48:17;5.00;;;4.80;;
14030;SDS011;7090;49.436;8.490;2023-03-13T00:50:43;10.87;;;6.43;;
14030;SDS011;7090;49.436;8.490;2023-03-13T00:53:09;6.80;;;6.00;;
14030;SDS011;7090;49.436;8.490;2023-03-13T00:55:34;9.40;;;6.97;;
14030;SDS011;7090;49.436;8.490;2023-03-13T00:58:00;6.17;;;5.97;;
14030;SDS011;7090;49.436;8.490;2023-03-13T01:00:25;6.80;;;6.30;;
14030;SDS011;7090;49.436;8.490;2023-03-13T01:02:51;7.13;;;6.50;;
14030;SDS011;7090;49.436;8.490;2023-03-13T01:05:16;5.40;;;5.20;;
14030;SDS011;7090;49.436;8.490;2023-03-13T01:07:42;5.60;;;5.30;;
14030;SDS011;7090;49.436;8.490;2023-03-13T01:10:08;7.63;;;6.00;;
14030;SDS011;7090;49.436;8.490;2023-03-13T01:12:34;7.40;;;6.27;;
14030;SDS011;7090;49.436;8.490;2023-03-13T01:15:00;5.90;;;5.43;;
14030;SDS011;7090;49.436;8.490;2023-03-13T01:17:26;6.53;;;5.93;;
14030;SDS011;7090;49.436;8.490;2023-03-13T01:19:54;13.07;;;6.00;;
14030;SDS011;7090;49.436;8.490;2023-03-13T01:22:20;9.63;;;5.70;;
14030;SDS011;7090;49.436;8.490;2023-03-13T01:24:46;8.33;;;5.80;;
14030;SDS011;7090;49.436;8.490;2023-03-13T01:27:16;5.77;;;5.30;;
14030;SDS011;7090;49.436;8.490;2023-03-13T01:29:42;6.47;;;5.87;;
14030;SDS011;7090;49.436;8.490;2023-03-13T01:32:07;10.10;;;5.07;;
14030;SDS011;7090;49.436;8.490;2023-03-13T01:34:33;7.57;;;6.20;;
14030;SDS011;7090;49.436;8.490;2023-03-13T01:36:59;6.43;;;5.57;;
14030;SDS011;7090;49.436;8.490;2023-03-13T01:39:25;6.80;;;6.03;;
14030;SDS011;7090;49.436;8.490;2023-03-13T01:41:50;5.87;;;5.57;;
14030;SDS011;7090;49.436;8.490;2023-03-13T01:44:23;5.73;;;5.43;;
14030;SDS011;7090;49.436;8.490;2023-03-13T01:46:50;5.37;;;5.10;;
14030;SDS011;7090;49.436;8.490;2023-03-13T01:49:17;7.27;;;6.33;;
14030;SDS011;7090;49.436;8.490;2023-03-13T01:59:58;6.03;;;5.10;;
14030;SDS011;7090;49.436;8.490;2023-03-13T02:02:34;6.33;;;5.87;;
14030;SDS011;7090;49.436;8.490;2023-03-13T02:05:02;7.10;;;6.00;;
14030;SDS011;7090;49.436;8.490;2023-03-13T02:07:38;7.00;;;5.97;;
14030;SDS011;7090;49.436;8.490;2023-03-13T02:10:10;9.23;;;6.40;;
14030;SDS011;7090;49.436;8.490;2023-03-13T02:12:39;6.47;;;6.17;;
14030;SDS011;7090;49.436;8.490;2023-03-13T02:17:34;7.13;;;6.53;;
14030;SDS011;7090;49.436;8.490;2023-03-13T02:20:01;6.70;;;6.27;;
14030;SDS011;7090;49.436;8.490;2023-03-13T02:27:51;7.07;;;6.50;;
14030;SDS011;7090;49.436;8.490;2023-03-13T02:30:22;8.50;;;6.30;;
14030;SDS011;7090;49.436;8.490;2023-03-13T02:32:48;5.80;;;5.50;;
14030;SDS011;7090;49.436;8.490;2023-03-13T02:35:15;7.13;;;6.10;;
14030;SDS011;7090;49.436;8.490;2023-03-13T02:37:43;5.13;;;4.93;;
14030;SDS011;7090;49.436;8.490;2023-03-13T02:40:17;6.23;;;5.67;;
14030;SDS011;7090;49.436;8.490;2023-03-13T02:42:48;5.53;;;5.23;;
14030;SDS011;7090;49.436;8.490;2023-03-13T02:45:16;8.37;;;6.00;;
14030;SDS011;7090;49.436;8.490;2023-03-13T02:47:42;6.30;;;5.93;;
14030;SDS011;7090;49.436;8.490;2023-03-13T02:50:08;6.93;;;6.03;;
14030;SDS011;7090;49.436;8.490;2023-03-13T02:52:44;5.97;;;5.43;;
14030;SDS011;7090;49.436;8.490;2023-03-13T02:55:35;9.00;;;6.20;;
14030;SDS011;7090;49.436;8.490;2023-03-13T02:58:00;8.20;;;6.30;;
14030;SDS011;7090;49.436;8.490;2023-03-13T03:00:26;11.27;;;6.23;;
14030;SDS011;7090;49.436;8.490;2023-03-13T03:02:52;6.80;;;6.20;;
14030;SDS011;7090;49.436;8.490;2023-03-13T03:05:18;8.40;;;6.07;;
14030;SDS011;7090;49.436;8.490;2023-03-13T03:07:46;6.20;;;5.70;;
14030;SDS011;7090;49.436;8.490;2023-03-13T03:10:12;5.90;;;5.50;;
14030;SDS011;7090;49.436;8.490;2023-03-13T03:12:37;6.67;;;6.03;;
14030;SDS011;7090;49.436;8.490;2023-03-13T03:15:03;7.03;;;6.07;;
14030;SDS011;7090;49.436;8.490;2023-03-13T03:17:29;7.43;;;6.60;;
14030;SDS011;7090;49.436;8.490;2023-03-13T03:19:55;6.87;;;6.23;;
14030;SDS011;7090;49.436;8.490;2023-03-13T03:22:20;7.03;;;6.50;;
14030;SDS011;7090;49.436;8.490;2023-03-13T03:24:46;6.30;;;5.90;;
14030;SDS011;7090;49.436;8.490;2023-03-13T03:27:11;6.70;;;5.97;;
14030;SDS011;7090;49.436;8.490;2023-03-13T03:29:37;7.27;;;6.60;;
14030;SDS011;7090;49.436;8.490;2023-03-13T03:32:02;7.07;;;6.40;;
14030;SDS011;7090;49.436;8.490;2023-03-13T03:34:28;7.00;;;5.90;;
14030;SDS011;7090;49.436;8.490;2023-03-13T03:36:54;7.40;;;6.50;;
14030;SDS011;7090;49.436;8.490;2023-03-13T03:39:19;6.13;;;5.73;;
14030;SDS011;7090;49.436;8.490;2023-03-13T03:41:45;7.13;;;6.73;;
14030;SDS011;7090;49.436;8.490;2023-03-13T03:44:11;7.10;;;6.50;;
14030;SDS011;7090;49.436;8.490;2023-03-13T03:46:36;6.10;;;5.70;;
14030;SDS011;7090;49.436;8.490;2023-03-13T03:49:02;6.80;;;6.50;;
14030;SDS011;7090;49.436;8.490;2023-03-13T03:51:27;9.60;;;6.80;;
14030;SDS011;7090;49.436;8.490;2023-03-13T03:53:53;7.00;;;6.00;;
14030;SDS011;7090;49.436;8.490;2023-03-13T03:56:18;6.70;;;6.20;;
14030;SDS011;7090;49.436;8.490;2023-03-13T03:58:44;7.13;;;6.40;;
14030;SDS011;7090;49.436;8.490;2023-03-13T04:01:10;7.93;;;6.27;;
14030;SDS011;7090;49.436;8.490;2023-03-13T04:03:36;6.93;;;5.90;;
14030;SDS011;7090;49.436;8.490;2023-03-13T04:06:01;6.20;;;5.80;;
14030;SDS011;7090;49.436;8.490;2023-03-13T04:08:27;6.70;;;6.10;;
14030;SDS011;7090;49.436;8.490;2023-03-13T04:10:52;6.50;;;6.00;;
14030;SDS011;7090;49.436;8.490;2023-03-13T04:13:18;6.50;;;6.10;;
14030;SDS011;7090;49.436;8.490;2023-03-13T04:15:44;5.97;;;5.60;;
14030;SDS011;7090;49.436;8.490;2023-03-13T04:18:09;6.47;;;5.90;;
14030;SDS011;7090;49.436;8.490;2023-03-13T04:20:35;5.97;;;5.57;;
14030;SDS011;7090;49.436;8.490;2023-03-13T04:23:01;6.10;;;5.60;;
14030;SDS011;7090;49.436;8.490;2023-03-13T04:25:26;5.87;;;5.47;;
14030;SDS011;7090;49.436;8.490;2023-03-13T04:27:52;5.77;;;5.47;;
14030;SDS011;7090;49.436;8.490;2023-03-13T04:30:18;5.60;;;5.17;;
14030;SDS011;7090;49.436;8.490;2023-03-13T04:32:43;6.30;;;5.80;;
14030;SDS011;7090;49.436;8.490;2023-03-13T04:35:09;6.47;;;5.87;;
14030;SDS011;7090;49.436;8.490;2023-03-13T04:37:35;5.80;;;5.30;;
14030;SDS011;7090;49.436;8.490;2023-03-13T04:40:00;5.73;;;5.30;;
14030;SDS011;7090;49.436;8.490;2023-03-13T04:42:26;6.40;;;6.00;;
14030;SDS011;7090;49.436;8.490;2023-03-13T04:44:52;5.47;;;5.27;;
14030;SDS011;7090;49.436;8.490;2023-03-13T04:47:17;6.03;;;5.43;;
14030;SDS011;7090;49.436;8.490;2023-03-13T04:49:43;6.07;;;5.57;;
14030;SDS011;7090;49.436;8.490;2023-03-13T04:52:09;6.53;;;5.93;;
14030;SDS011;7090;49.436;8.490;2023-03-13T04:54:34;6.70;;;6.10;;
14030;SDS011;7090;49.436;8.490;2023-03-13T04:57:00;6.00;;;5.60;;
14030;SDS011;7090;49.436;8.490;2023-03-13T04:59:26;5.80;;;5.50;;
14030;SDS011;7090;49.436;8.490;2023-03-13T05:01:51;6.07;;;5.20;;
14030;SDS011;7090;49.436;8.490;2023-03-13T05:04:17;5.90;;;5.37;;
14030;SDS011;7090;49.436;8.490;2023-03-13T05:06:43;5.93;;;5.43;;
14030;SDS011;7090;49.436;8.490;2023-03-13T05:09:08;5.67;;;5.33;;
14030;SDS011;7090;49.436;8.490;2023-03-13T05:11:34;5.80;;;5.45;;
14030;SDS011;7090;49.436;8.490;2023-03-13T05:13:59;5.40;;;5.10;;
14030;SDS011;7090;49.436;8.490;2023-03-13T05:16:25;6.73;;;5.90;;
14030;SDS011;7090;49.436;8.490;2023-03-13T05:18:51;6.40;;;6.00;;
14030;SDS011;7090;49.436;8.490;2023-03-13T05:21:16;8.50;;;6.43;;
14030;SDS011;7090;49.436;8.490;2023-03-13T05:23:42;7.07;;;6.33;;
14030;SDS011;7090;49.436;8.490;2023-03-13T05:26:07;6.53;;;6.07;;
14030;SDS011;7090;49.436;8.490;2023-03-13T05:28:33;6.33;;;6.00;;
14030;SDS011;7090;49.436;8.490;2023-03-13T05:30:58;7.50;;;6.87;;
14030;SDS011;7090;49.436;8.490;2023-03-13T05:33:24;7.30;;;6.33;;
14030;SDS011;7090;49.436;8.490;2023-03-13T05:35:50;5.97;;;5.73;;
14030;SDS011;7090;49.436;8.490;2023-03-13T05:38:15;6.63;;;6.23;;
14030;SDS011;7090;49.436;8.490;2023-03-13T05:40:41;7.57;;;7.10;;
14030;SDS011;7090;49.436;8.490;2023-03-13T05:43:06;6.90;;;6.50;;
14030;SDS011;7090;49.436;8.490;2023-03-13T05:45:32;6.93;;;6.27;;
14030;SDS011;7090;49.436;8.490;2023-03-13T05:47:57;6.23;;;5.90;;
14030;SDS011;7090;49.436;8.490;2023-03-13T05:50:23;7.03;;;6.33;;
14030;SDS011;7090;49.436;8.490;2023-03-13T05:52:49;6.33;;;5.90;;
14030;SDS011;7090;49.436;8.490;2023-03-13T05:55:16;7.10;;;6.30;;
14030;SDS011;7090;49.436;8.490;2023-03-13T05:57:46;6.30;;;5.80;;
14030;SDS011;7090;49.436;8.490;2023-03-13T06:00:13;6.30;;;6.00;;
14030;SDS011;7090;49.436;8.490;2023-03-13T06:02:40;6.70;;;6.20;;
14030;SDS011;7090;49.436;8.490;2023-03-13T06:05:06;6.30;;;6.10;;
14030;SDS011;7090;49.436;8.490;2023-03-13T06:07:32;5.97;;;5.77;;
14030;SDS011;7090;49.436;8.490;2023-03-13T06:09:58;6.20;;;5.80;;
14030;SDS011;7090;49.436;8.490;2023-03-13T06:12:23;5.63;;;5.43;;
14030;SDS011;7090;49.436;8.490;2023-03-13T06:14:49;6.07;;;5.60;;
14030;SDS011;7090;49.436;8.490;2023-03-13T06:17:15;7.07;;;6.63;;
14030;SDS011;7090;49.436;8.490;2023-03-13T06:19:40;6.00;;;5.70;;
14030;SDS011;7090;49.436;8.490;2023-03-13T06:22:06;5.63;;;5.37;;
14030;SDS011;7090;49.436;8.490;2023-03-13T06:24:32;9.57;;;7.90;;
14030;SDS011;7090;49.436;8.490;2023-03-13T06:26:57;6.70;;;6.20;;
14030;SDS011;7090;49.436;8.490;2023-03-13T06:29:23;8.47;;;7.70;;
14030;SDS011;7090;49.436;8.490;2023-03-13T06:31:49;7.77;;;7.23;;
14030;SDS011;7090;49.436;8.490;2023-03-13T06:34:15;5.60;;;5.40;;
14030;SDS011;7090;49.436;8.490;2023-03-13T06:36:41;6.23;;;5.83;;
14030;SDS011;7090;49.436;8.490;2023-03-13T06:39:06;7.60;;;6.97;;
14030;SDS011;7090;49.436;8.490;2023-03-13T06:41:32;6.73;;;6.30;;
14030;SDS011;7090;49.436;8.490;2023-03-13T06:43:58;7.30;;;6.83;;
14030;SDS011;7090;49.436;8.490;2023-03-13T06:46:24;7.13;;;6.73;;
14030;SDS011;7090;49.436;8.490;2023-03-13T06:48:50;8.13;;;7.50;;
14030;SDS011;7090;49.436;8.490;2023-03-13T06:51:17;6.00;;;5.70;;
14030;SDS011;7090;49.436;8.490;2023-03-13T06:53:45;8.57;;;7.78;;
14030;SDS011;7090;49.436;8.490;2023-03-13T06:56:12;6.87;;;6.40;;
14030;SDS011;7090;49.436;8.490;2023-03-13T06:58:39;7.13;;;6.57;;
14030;SDS011;7090;49.436;8.490;2023-03-13T07:01:09;7.73;;;7.13;;
14030;SDS011;7090;49.436;8.490;2023-03-13T07:03:36;9.83;;;8.73;;
14030;SDS011;7090;49.436;8.490;2023-03-13T07:06:02;8.67;;;7.90;;
14030;SDS011;7090;49.436;8.490;2023-03-13T07:08:29;6.90;;;6.63;;
14030;SDS011;7090;49.436;8.490;2023-03-13T07:10:59;8.87;;;8.17;;
14030;SDS011;7090;49.436;8.490;2023-03-13T07:13:26;10.67;;;8.93;;
14030;SDS011;7090;49.436;8.490;2023-03-13T07:15:52;7.50;;;7.20;;
14030;SDS011;7090;49.436;8.490;2023-03-13T07:18:17;7.30;;;6.90;;
14030;SDS011;7090;49.436;8.490;2023-03-13T07:20:44;11.50;;;9.47;;
14030;SDS011;7090;49.436;8.490;2023-03-13T07:23:09;7.17;;;6.77;;
14030;SDS011;7090;49.436;8.490;2023-03-13T07:25:35;8.60;;;8.00;;
14030;SDS011;7090;49.436;8.490;2023-03-13T07:28:00;8.97;;;8.30;;
14030;SDS011;7090;49.436;8.490;2023-03-13T07:30:26;18.57;;;11.30;;
14030;SDS011;7090;49.436;8.490;2023-03-13T07:32:52;9.43;;;8.13;;
14030;SDS011;7090;49.436;8.490;2023-03-13T07:35:18;18.90;;;9.80;;
14030;SDS011;7090;49.436;8.490;2023-03-13T07:37:43;10.73;;;8.50;;
14030;SDS011;7090;49.436;8.490;2023-03-13T07:40:09;11.60;;;10.43;;
14030;SDS011;7090;49.436;8.490;2023-03-13T07:42:38;8.60;;;8.00;;
14030;SDS011;7090;49.436;8.490;2023-03-13T07:45:05;7.80;;;7.20;;
14030;SDS011;7090;49.436;8.490;2023-03-13T07:47:32;7.87;;;7.50;;
14030;SDS011;7090;49.436;8.490;2023-03-13T07:49:59;7.30;;;7.00;;
14030;SDS011;7090;49.436;8.490;2023-03-13T07:52:24;7.40;;;7.00;;
14030;SDS011;7090;49.436;8.490;2023-03-13T07:54:51;7.27;;;6.87;;
14030;SDS011;7090;49.436;8.490;2023-03-13T07:57:17;7.40;;;7.03;;
14030;SDS011;7090;49.436;8.490;2023-03-13T07:59:43;6.83;;;6.53;;
14030;SDS011;7090;49.436;8.490;2023-03-13T08:02:10;7.03;;;6.70;;
14030;SDS011;7090;49.436;8.490;2023-03-13T08:04:37;7.00;;;6.70;;
14030;SDS011;7090;49.436;8.490;2023-03-13T08:07:07;7.20;;;6.80;;
14030;SDS011;7090;49.436;8.490;2023-03-13T08:09:36;7.23;;;6.70;;
14030;SDS011;7090;49.436;8.490;2023-03-13T08:12:01;6.75;;;6.45;;
14030;SDS011;7090;49.436;8.490;2023-03-13T08:14:27;6.90;;;6.60;;
14030;SDS011;7090;49.436;8.490;2023-03-13T08:16:53;6.60;;;6.40;;
14030;SDS011;7090;49.436;8.490;2023-03-13T08:19:19;7.00;;;6.70;;
14030;SDS011;7090;49.436;8.490;2023-03-13T08:21:44;6.80;;;6.50;;
14030;SDS011;7090;49.436;8.490;2023-03-13T08:24:10;7.20;;;6.90;;
14030;SDS011;7090;49.436;8.490;2023-03-13T08:26:37;6.70;;;6.40;;
14030;SDS011;7090;49.436;8.490;2023-03-13T08:29:08;7.05;;;6.75;;
14030;SDS011;7090;49.436;8.490;2023-03-13T08:31:36;7.45;;;7.05;;
14030;SDS011;7090;49.436;8.490;2023-03-13T08:34:06;7.97;;;7.47;;
14030;SDS011;7090;49.436;8.490;2023-03-13T08:36:32;7.33;;;6.80;;
14030;SDS011;7090;49.436;8.490;2023-03-13T08:39:01;7.70;;;7.30;;
14030;SDS011;7090;49.436;8.490;2023-03-13T08:41:30;7.18;;;6.80;;
14030;SDS011;7090;49.436;8.490;2023-03-13T08:43:58;7.10;;;6.80;;
14030;SDS011;7090;49.436;8.490;2023-03-13T08:46:24;7.60;;;7.20;;
14030;SDS011;7090;49.436;8.490;2023-03-13T08:48:50;7.60;;;7.20;;
14030;SDS011;7090;49.436;8.490;2023-03-13T08:51:17;10.27;;;7.13;;
14030;SDS011;7090;49.436;8.490;2023-03-13T08:53:44;7.35;;;7.00;;
14030;SDS011;7090;49.436;8.490;2023-03-13T08:56:11;7.38;;;6.97;;
14030;SDS011;7090;49.436;8.490;2023-03-13T08:58:41;7.80;;;7.40;;
14030;SDS011;7090;49.436;8.490;2023-03-13T09:01:11;7.13;;;6.80;;
14030;SDS011;7090;49.436;8.490;2023-03-13T09:03:38;7.10;;;6.75;;
14030;SDS011;7090;49.436;8.490;2023-03-13T09:06:04;6.90;;;6.60;;
14030;SDS011;7090;49.436;8.490;2023-03-13T09:08:31;6.93;;;6.63;;
14030;SDS011;7090;49.436;8.490;2023-03-13T09:10:58;7.32;;;6.82;;
14030;SDS011;7090;49.436;8.490;2023-03-13T09:13:45;6.40;;;6.20;;
14030;SDS011;7090;49.436;8.490;2023-03-13T09:16:13;7.18;;;6.88;;
14030;SDS011;7090;49.436;8.490;2023-03-13T09:18:40;6.63;;;6.32;;
14030;SDS011;7090;49.436;8.490;2023-03-13T09:21:07;6.70;;;6.38;;
14030;SDS011;7090;49.436;8.490;2023-03-13T09:23:41;6.30;;;6.10;;
14030;SDS011;7090;49.436;8.490;2023-03-13T09:26:06;6.73;;;6.43;;
14030;SDS011;7090;49.436;8.490;2023-03-13T09:28:33;6.97;;;6.60;;
14030;SDS011;7090;49.436;8.490;2023-03-13T09:31:09;6.63;;;6.28;;
14030;SDS011;7090;49.436;8.490;2023-03-13T09:33:36;7.43;;;7.03;;
14030;SDS011;7090;49.436;8.490;2023-03-13T09:36:03;7.03;;;6.73;;
14030;SDS011;7090;49.436;8.490;2023-03-13T09:38:29;7.05;;;6.65;;
14030;SDS011;7090;49.436;8.490;2023-03-13T09:40:59;6.68;;;6.30;;
14030;SDS011;7090;49.436;8.490;2023-03-13T09:43:47;7.10;;;6.80;;
14030;SDS011;7090;49.436;8.490;2023-03-13T09:46:24;7.28;;;6.68;;
14030;SDS011;7090;49.436;8.490;2023-03-13T09:49:02;7.25;;;6.95;;
14030;SDS011;7090;49.436;8.490;2023-03-13T09:51:38;7.15;;;6.85;;
14030;SDS011;7090;49.436;8.490;2023-03-13T09:54:17;7.45;;;7.15;;
14030;SDS011;7090;49.436;8.490;2023-03-13T09:57:14;7.70;;;7.30;;
14030;SDS011;7090;49.436;8.490;2023-03-13T10:02:44;7.15;;;6.85;;
14030;SDS011;7090;49.436;8.490;2023-03-13T10:07:48;6.93;;;6.53;;
14030;SDS011;7090;49.436;8.490;2023-03-13T10:10:15;7.00;;;6.70;;
14030;SDS011;7090;49.436;8.490;2023-03-13T10:12:48;6.97;;;6.68;;
14030;SDS011;7090;49.436;8.490;2023-03-13T10:18:10;7.68;;;7.20;;
14030;SDS011;7090;49.436;8.490;2023-03-13T10:20:44;7.50;;;7.20;;
14030;SDS011;7090;49.436;8.490;2023-03-13T10:23:13;7.50;;;7.10;;
14030;SDS011;7090;49.436;8.490;2023-03-13T10:25:43;6.70;;;6.40;;
14030;SDS011;7090;49.436;8.490;2023-03-13T10:28:10;6.55;;;6.30;;
14030;SDS011;7090;49.436;8.490;2023-03-13T10:30:45;6.90;;;6.60;;
14030;SDS011;7090;49.436;8.490;2023-03-13T10:33:22;6.85;;;6.55;;
14030;SDS011;7090;49.436;8.490;2023-03-13T10:36:08;7.07;;;6.80;;
14030;SDS011;7090;49.436;8.490;2023-03-13T10:43:51;6.57;;;6.28;;
14030;SDS011;7090;49.436;8.490;2023-03-13T10:46:27;7.22;;;6.82;;
14030;SDS011;7090;49.436;8.490;2023-03-13T10:48:55;6.20;;;6.00;;
14030;SDS011;7090;49.436;8.490;2023-03-13T10:51:24;7.68;;;7.07;;
14030;SDS011;7090;49.436;8.490;2023-03-13T10:54:13;6.72;;;6.43;;
14030;SDS011;7090;49.436;8.490;2023-03-13T10:56:45;6.38;;;6.07;;
14030;SDS011;7090;49.436;8.490;2023-03-13T10:59:22;6.35;;;6.05;;
14030;SDS011;7090;49.436;8.490;2023-03-13T11:01:49;6.40;;;6.00;;
14030;SDS011;7090;49.436;8.490;2023-03-13T11:04:32;7.90;;;6.00;;
14030;SDS011;7090;49.436;8.490;2023-03-13T11:07:05;6.35;;;6.05;;
14030;SDS011;7090;49.436;8.490;2023-03-13T11:09:40;6.38;;;6.07;;
14030;SDS011;7090;49.436;8.490;2023-03-13T11:12:08;6.30;;;6.00;;
14030;SDS011;7090;49.436;8.490;2023-03-13T11:14:44;6.40;;;6.00;;
14030;SDS011;7090;49.436;8.490;2023-03-13T11:17:23;5.97;;;5.78;;
14030;SDS011;7090;49.436;8.490;2023-03-13T11:28:08;6.25;;;5.95;;
14030;SDS011;7090;49.436;8.490;2023-03-13T11:30:53;5.50;;;5.30;;
14030;SDS011;7090;49.436;8.490;2023-03-13T11:36:29;5.95;;;5.72;;
14030;SDS011;7090;49.436;8.490;2023-03-13T11:50:36;6.82;;;6.43;;
14030;SDS011;7090;49.436;8.490;2023-03-13T11:53:17;5.90;;;5.60;;
14030;SDS011;7090;49.436;8.490;2023-03-13T11:56:07;5.82;;;5.57;;
14030;SDS011;7090;49.436;8.490;2023-03-13T12:01:51;6.38;;;6.07;;
14030;SDS011;7090;49.436;8.490;2023-03-13T12:04:26;5.80;;;5.60;;
14030;SDS011;7090;49.436;8.490;2023-03-13T12:09:29;6.18;;;5.88;;
14030;SDS011;7090;49.436;8.490;2023-03-13T12:15:03;6.10;;;5.70;;
14030;SDS011;7090;49.436;8.490;2023-03-13T12:17:52;5.75;;;5.43;;
14030;SDS011;7090;49.436;8.490;2023-03-13T12:20:39;6.55;;;6.10;;
14030;SDS011;7090;49.436;8.490;2023-03-13T12:28:26;5.30;;;5.10;;
14030;SDS011;7090;49.436;8.490;2023-03-13T12:33:25;5.90;;;5.50;;
14030;SDS011;7090;49.436;8.490;2023-03-13T12:36:12;5.00;;;4.80;;
14030;SDS011;7090;49.436;8.490;2023-03-13T12:39:09;5.55;;;5.28;;
14030;SDS011;7090;49.436;8.490;2023-03-13T12:41:47;5.70;;;5.40;;
14030;SDS011;7090;49.436;8.490;2023-03-13T12:44:34;5.88;;;5.60;;
14030;SDS011;7090;49.436;8.490;2023-03-13T12:49:38;5.70;;;5.50;;
14030;SDS011;7090;49.436;8.490;2023-03-13T12:52:34;5.90;;;5.68;;
14030;SDS011;7090;49.436;8.490;2023-03-13T12:55:31;6.00;;;5.70;;
14030;SDS011;7090;49.436;8.490;2023-03-13T12:58:08;6.30;;;5.80;;
14030;SDS011;7090;49.436;8.490;2023-03-13T13:00:39;6.13;;;5.82;;
14030;SDS011;7090;49.436;8.490;2023-03-13T13:13:57;6.13;;;5.82;;
14030;SDS011;7090;49.436;8.490;2023-03-13T13:16:24;5.43;;;5.22;;
14030;SDS011;7090;49.436;8.490;2023-03-13T13:18:50;6.20;;;5.90;;
14030;SDS011;7090;49.436;8.490;2023-03-13T13:23:45;6.30;;;6.00;;
14030;SDS011;7090;49.436;8.490;2023-03-13T13:36:52;6.55;;;6.25;;
14030;SDS011;7090;49.436;8.490;2023-03-13T13:39:31;6.70;;;6.40;;
14030;SDS011;7090;49.436;8.490;2023-03-13T13:56:26;5.50;;;5.30;;
14030;SDS011;7090;49.436;8.490;2023-03-13T13:58:57;6.88;;;6.55;;
14030;SDS011;7090;49.436;8.490;2023-03-13T14:01:43;6.70;;;6.30;;
14030;SDS011;7090;49.436;8.490;2023-03-13T14:04:18;6.20;;;6.00;;
14030;SDS011;7090;49.436;8.490;2023-03-13T14:07:09;6.07;;;5.78;;
14030;SDS011;7090;49.436;8.490;2023-03-13T14:12:30;6.57;;;6.30;;
14030;SDS011;7090;49.436;8.490;2023-03-13T14:15:06;6.20;;;6.00;;
14030;SDS011;7090;49.436;8.490;2023-03-13T14:17:46;6.60;;;6.30;;
14030;SDS011;7090;49.436;8.490;2023-03-13T14:20:17;6.13;;;5.90;;
14030;SDS011;7090;49.436;8.490;2023-03-13T14:23:40;6.40;;;6.10;;
14030;SDS011;7090;49.436;8.490;2023-03-13T14:28:39;6.85;;;6.35;;
14030;SDS011;7090;49.436;8.490;2023-03-13T14:31:07;6.43;;;6.13;;
14030;SDS011;7090;49.436;8.490;2023-03-13T14:33:33;7.45;;;6.95;;
14030;SDS011;7090;49.436;8.490;2023-03-13T14:35:59;6.60;;;6.30;;
14030;SDS011;7090;49.436;8.490;2023-03-13T14:38:26;6.80;;;6.50;;
14030;SDS011;7090;49.436;8.490;2023-03-13T14:40:57;7.18;;;6.85;;
14030;SDS011;7090;49.436;8.490;2023-03-13T14:43:31;7.00;;;6.70;;
14030;SDS011;7090;49.436;8.490;2023-03-13T14:46:00;7.32;;;7.00;;
14030;SDS011;7090;49.436;8.490;2023-03-13T14:49:17;7.07;;;6.78;;
14030;SDS011;7090;49.436;8.490;2023-03-13T14:51:44;7.10;;;6.80;;
14030;SDS011;7090;49.436;8.490;2023-03-13T14:57:04;7.03;;;6.72;;
14030;SDS011;7090;49.436;8.490;2023-03-13T14:59:37;7.75;;;7.30;;
14030;SDS011;7090;49.436;8.490;2023-03-13T15:04:46;8.13;;;7.68;;
14030;SDS011;7090;49.436;8.490;2023-03-13T15:07:20;7.60;;;7.30;;
14030;SDS011;7090;49.436;8.490;2023-03-13T15:09:47;7.40;;;7.10;;
14030;SDS011;7090;49.436;8.490;2023-03-13T15:12:15;8.20;;;7.78;;
14030;SDS011;7090;49.436;8.490;2023-03-13T15:14:43;7.40;;;7.10;;
14030;SDS011;7090;49.436;8.490;2023-03-13T15:17:21;8.15;;;7.70;;
14030;SDS011;7090;49.436;8.490;2023-03-13T15:19:49;7.68;;;7.07;;
14030;SDS011;7090;49.436;8.490;2023-03-13T15:22:17;7.85;;;7.50;;
14030;SDS011;7090;49.436;8.490;2023-03-13T15:24:45;8.02;;;7.63;;
14030;SDS011;7090;49.436;8.490;2023-03-13T15:27:15;7.57;;;7.28;;
14030;SDS011;7090;49.436;8.490;2023-03-13T15:29:42;7.28;;;6.97;;
14030;SDS011;7090;49.436;8.490;2023-03-13T15:32:11;7.60;;;7.30;;
14030;SDS011;7090;49.436;8.490;2023-03-13T15:34:46;7.60;;;7.30;;
14030;SDS011;7090;49.436;8.490;2023-03-13T15:37:12;7.50;;;7.20;;
14030;SDS011;7090;49.436;8.490;2023-03-13T15:39:38;7.30;;;7.00;;
14030;SDS011;7090;49.436;8.490;2023-03-13T15:42:03;6.80;;;6.60;;
14030;SDS011;7090;49.436;8.490;2023-03-13T15:44:29;7.00;;;6.70;;
14030;SDS011;7090;49.436;8.490;2023-03-13T15:46:55;7.07;;;6.70;;
14030;SDS011;7090;49.436;8.490;2023-03-13T15:49:20;6.90;;;6.60;;
14030;SDS011;7090;49.436;8.490;2023-03-13T15:51:46;6.47;;;6.28;;
14030;SDS011;7090;49.436;8.490;2023-03-13T15:54:11;6.50;;;6.30;;
14030;SDS011;7090;49.436;8.490;2023-03-13T15:56:37;7.22;;;6.75;;
14030;SDS011;7090;49.436;8.490;2023-03-13T15:59:13;6.80;;;6.60;;
14030;SDS011;7090;49.436;8.490;2023-03-13T16:01:40;7.20;;;6.80;;
14030;SDS011;7090;49.436;8.490;2023-03-13T16:04:08;6.82;;;6.53;;
14030;SDS011;7090;49.436;8.490;2023-03-13T16:06:34;6.90;;;6.60;;
14030;SDS011;7090;49.436;8.490;2023-03-13T16:09:00;6.90;;;6.60;;
14030;SDS011;7090;49.436;8.490;2023-03-13T16:11:29;6.85;;;6.57;;
14030;SDS011;7090;49.436;8.490;2023-03-13T16:13:55;6.57;;;6.30;;
14030;SDS011;7090;49.436;8.490;2023-03-13T16:16:25;6.65;;;6.45;;
14030;SDS011;7090;49.436;8.490;2023-03-13T16:18:55;10.07;;;6.68;;
14030;SDS011;7090;49.436;8.490;2023-03-13T16:21:23;6.05;;;5.85;;
14030;SDS011;7090;49.436;8.490;2023-03-13T16:23:53;5.88;;;5.68;;
14030;SDS011;7090;49.436;8.490;2023-03-13T16:26:20;5.95;;;5.75;;
14030;SDS011;7090;49.436;8.490;2023-03-13T16:28:47;6.32;;;6.13;;
14030;SDS011;7090;49.436;8.490;2023-03-13T16:31:15;9.43;;;6.13;;
14030;SDS011;7090;49.436;8.490;2023-03-13T16:33:42;5.88;;;5.68;;
14030;SDS011;7090;49.436;8.490;2023-03-13T16:36:19;5.85;;;5.65;;
14030;SDS011;7090;49.436;8.490;2023-03-13T16:38:46;5.80;;;5.60;;
14030;SDS011;7090;49.436;8.490;2023-03-13T16:41:16;6.00;;;5.80;;
14030;SDS011;7090;49.436;8.490;2023-03-13T16:43:43;6.00;;;5.80;;
14030;SDS011;7090;49.436;8.490;2023-03-13T16:46:19;5.60;;;5.40;;
14030;SDS011;7090;49.436;8.490;2023-03-13T16:48:51;5.70;;;5.50;;
14030;SDS011;7090;49.436;8.490;2023-03-13T16:51:21;5.70;;;5.50;;
14030;SDS011;7090;49.436;8.490;2023-03-13T16:53:49;9.50;;;9.10;;
14030;SDS011;7090;49.436;8.490;2023-03-13T16:56:20;9.80;;;9.40;;
14030;SDS011;7090;49.436;8.490;2023-03-13T16:58:46;9.48;;;9.07;;
14030;SDS011;7090;49.436;8.490;2023-03-13T17:01:12;9.10;;;8.70;;
14030;SDS011;7090;49.436;8.490;2023-03-13T17:03:37;7.40;;;7.10;;
14030;SDS011;7090;49.436;8.490;2023-03-13T17:06:03;8.48;;;7.95;;
14030;SDS011;7090;49.436;8.490;2023-03-13T17:08:29;9.05;;;8.65;;
14030;SDS011;7090;49.436;8.490;2023-03-13T17:10:55;11.60;;;11.10;;
14030;SDS011;7090;49.436;8.490;2023-03-13T17:13:20;12.20;;;11.70;;